sensor_id;sensor_type;location;lat;lon;timestamp;P1;durP1;ratioP1;P2;durP2;ratioP2
4744;SDS011;2386;42.138;24.746;2023-02-24T00:00:59;184.30;;;72.20;;
4744;SDS011;2386;42.138;24.746;2023-02-24T00:03:33;188.80;;;73.80;;
4744;SDS011;2386;42.138;24.746;2023-02-24T00:06:02;188.60;;;75.80;;
4744;SDS011;2386;42.138;24.746;2023-02-24T00:08:33;191.50;;;73.63;;
4744;SDS011;2386;42.138;24.746;2023-02-24T00:11:05;187.20;;;73.80;;
4744;SDS011;2386;42.138;24.746;2023-02-24T00:13:41;190.67;;;72.80;;
4744;SDS011;2386;42.138;24.746;2023-02-24T00:16:13;187.73;;;71.87;;
4744;SDS011;2386;42.138;24.746;2023-02-24T00:18:43;198.77;;;74.00;;
4744;SDS011;2386;42.138;24.746;2023-02-24T00:21:13;196.60;;;72.60;;
4744;SDS011;2386;42.138;24.746;2023-02-24T00:23:44;186.17;;;73.83;;
4744;SDS011;2386;42.138;24.746;2023-02-24T00:26:11;180.23;;;69.53;;
4744;SDS011;2386;42.138;24.746;2023-02-24T00:28:38;201.10;;;77.50;;
4744;SDS011;2386;42.138;24.746;2023-02-24T00:31:05;202.03;;;75.93;;
4744;SDS011;2386;42.138;24.746;2023-02-24T00:33:34;198.37;;;75.17;;
4744;SDS011;2386;42.138;24.746;2023-02-24T00:36:06;184.87;;;73.50;;
4744;SDS011;2386;42.138;24.746;2023-02-24T00:38:34;179.30;;;70.30;;
4744;SDS011;2386;42.138;24.746;2023-02-24T00:41:09;194.83;;;76.93;;
4744;SDS011;2386;42.138;24.746;2023-02-24T00:43:38;206.47;;;78.77;;
4744;SDS011;2386;42.138;24.746;2023-02-24T00:46:05;189.87;;;75.63;;
4744;SDS011;2386;42.138;24.746;2023-02-24T00:48:37;192.53;;;73.07;;
4744;SDS011;2386;42.138;24.746;2023-02-24T00:51:09;186.80;;;70.83;;
4744;SDS011;2386;42.138;24.746;2023-02-24T00:53:35;207.73;;;76.70;;
4744;SDS011;2386;42.138;24.746;2023-02-24T00:56:03;201.67;;;75.33;;
4744;SDS011;2386;42.138;24.746;2023-02-24T00:58:33;199.77;;;76.40;;
4744;SDS011;2386;42.138;24.746;2023-02-24T01:00:59;198.57;;;77.80;;
4744;SDS011;2386;42.138;24.746;2023-02-24T01:03:26;196.67;;;74.17;;
4744;SDS011;2386;42.138;24.746;2023-02-24T01:05:51;203.73;;;78.90;;
4744;SDS011;2386;42.138;24.746;2023-02-24T01:08:17;192.63;;;73.63;;
4744;SDS011;2386;42.138;24.746;2023-02-24T01:10:58;197.23;;;70.17;;
4744;SDS011;2386;42.138;24.746;2023-02-24T01:13:43;180.27;;;68.23;;
4744;SDS011;2386;42.138;24.746;2023-02-24T01:16:09;201.90;;;75.43;;
4744;SDS011;2386;42.138;24.746;2023-02-24T01:18:38;183.80;;;69.97;;
4744;SDS011;2386;42.138;24.746;2023-02-24T01:21:04;146.43;;;62.60;;
4744;SDS011;2386;42.138;24.746;2023-02-24T01:23:30;163.67;;;65.63;;
4744;SDS011;2386;42.138;24.746;2023-02-24T01:25:56;178.70;;;71.30;;
4744;SDS011;2386;42.138;24.746;2023-02-24T01:28:24;174.87;;;71.10;;
4744;SDS011;2386;42.138;24.746;2023-02-24T01:30:53;176.87;;;70.57;;
4744;SDS011;2386;42.138;24.746;2023-02-24T01:33:19;175.03;;;68.87;;
4744;SDS011;2386;42.138;24.746;2023-02-24T01:35:46;185.40;;;69.97;;
4744;SDS011;2386;42.138;24.746;2023-02-24T01:38:12;190.20;;;71.03;;
4744;SDS011;2386;42.138;24.746;2023-02-24T01:40:38;196.43;;;71.80;;
4744;SDS011;2386;42.138;24.746;2023-02-24T01:43:04;178.77;;;68.40;;
4744;SDS011;2386;42.138;24.746;2023-02-24T01:45:33;191.17;;;70.20;;
4744;SDS011;2386;42.138;24.746;2023-02-24T01:48:05;178.43;;;66.67;;
4744;SDS011;2386;42.138;24.746;2023-02-24T01:50:32;192.10;;;73.57;;
4744;SDS011;2386;42.138;24.746;2023-02-24T01:53:00;169.60;;;64.70;;
4744;SDS011;2386;42.138;24.746;2023-02-24T01:55:29;182.43;;;66.70;;
4744;SDS011;2386;42.138;24.746;2023-02-24T01:58:02;185.53;;;69.43;;
4744;SDS011;2386;42.138;24.746;2023-02-24T02:00:32;192.50;;;71.13;;
4744;SDS011;2386;42.138;24.746;2023-02-24T02:03:25;193.33;;;71.50;;
4744;SDS011;2386;42.138;24.746;2023-02-24T02:05:58;195.40;;;71.77;;
4744;SDS011;2386;42.138;24.746;2023-02-24T02:08:25;202.53;;;72.57;;
4744;SDS011;2386;42.138;24.746;2023-02-24T02:10:52;186.10;;;67.70;;
4744;SDS011;2386;42.138;24.746;2023-02-24T02:13:23;184.30;;;70.37;;
4744;SDS011;2386;42.138;24.746;2023-02-24T02:15:55;180.83;;;67.07;;
4744;SDS011;2386;42.138;24.746;2023-02-24T02:21:39;202.53;;;69.33;;
4744;SDS011;2386;42.138;24.746;2023-02-24T02:27:27;145.67;;;60.77;;
4744;SDS011;2386;42.138;24.746;2023-02-24T02:33:07;169.30;;;66.40;;
4744;SDS011;2386;42.138;24.746;2023-02-24T02:35:47;161.17;;;63.03;;
4744;SDS011;2386;42.138;24.746;2023-02-24T02:41:21;163.07;;;65.17;;
4744;SDS011;2386;42.138;24.746;2023-02-24T02:48:58;170.37;;;67.20;;
4744;SDS011;2386;42.138;24.746;2023-02-24T02:51:47;170.17;;;65.63;;
4744;SDS011;2386;42.138;24.746;2023-02-24T02:54:17;164.43;;;64.20;;
4744;SDS011;2386;42.138;24.746;2023-02-24T02:59:42;172.73;;;65.00;;
4744;SDS011;2386;42.138;24.746;2023-02-24T03:02:14;165.60;;;64.43;;
4744;SDS011;2386;42.138;24.746;2023-02-24T03:04:48;178.57;;;64.37;;
4744;SDS011;2386;42.138;24.746;2023-02-24T03:07:17;169.57;;;63.80;;
4744;SDS011;2386;42.138;24.746;2023-02-24T03:09:49;176.67;;;67.17;;
4744;SDS011;2386;42.138;24.746;2023-02-24T03:12:20;185.13;;;65.40;;
4744;SDS011;2386;42.138;24.746;2023-02-24T03:14:48;173.90;;;67.07;;
4744;SDS011;2386;42.138;24.746;2023-02-24T03:17:21;184.90;;;72.00;;
4744;SDS011;2386;42.138;24.746;2023-02-24T03:19:51;176.40;;;65.40;;
4744;SDS011;2386;42.138;24.746;2023-02-24T03:22:35;187.13;;;70.97;;
4744;SDS011;2386;42.138;24.746;2023-02-24T03:25:06;170.93;;;65.57;;
4744;SDS011;2386;42.138;24.746;2023-02-24T03:27:54;177.53;;;67.73;;
4744;SDS011;2386;42.138;24.746;2023-02-24T03:30:29;189.60;;;65.50;;
4744;SDS011;2386;42.138;24.746;2023-02-24T03:33:03;186.07;;;68.97;;
4744;SDS011;2386;42.138;24.746;2023-02-24T03:35:40;198.77;;;74.50;;
4744;SDS011;2386;42.138;24.746;2023-02-24T03:38:07;187.77;;;68.70;;
4744;SDS011;2386;42.138;24.746;2023-02-24T03:40:35;178.47;;;64.73;;
4744;SDS011;2386;42.138;24.746;2023-02-24T03:43:04;178.40;;;65.13;;
4744;SDS011;2386;42.138;24.746;2023-02-24T03:45:37;191.23;;;71.03;;
4744;SDS011;2386;42.138;24.746;2023-02-24T03:48:05;185.00;;;68.83;;
4744;SDS011;2386;42.138;24.746;2023-02-24T03:50:32;196.37;;;72.63;;
4744;SDS011;2386;42.138;24.746;2023-02-24T04:10:11;163.93;;;64.20;;
4744;SDS011;2386;42.138;24.746;2023-02-24T04:12:49;191.63;;;70.30;;
4744;SDS011;2386;42.138;24.746;2023-02-24T04:15:21;184.20;;;68.77;;
4744;SDS011;2386;42.138;24.746;2023-02-24T04:17:57;188.40;;;66.27;;
4744;SDS011;2386;42.138;24.746;2023-02-24T04:20:28;178.63;;;67.80;;
4744;SDS011;2386;42.138;24.746;2023-02-24T04:23:18;191.77;;;68.93;;
4744;SDS011;2386;42.138;24.746;2023-02-24T04:25:46;151.03;;;60.47;;
4744;SDS011;2386;42.138;24.746;2023-02-24T04:28:14;180.77;;;69.63;;
4744;SDS011;2386;42.138;24.746;2023-02-24T04:30:44;172.70;;;66.83;;
4744;SDS011;2386;42.138;24.746;2023-02-24T04:33:12;187.97;;;72.90;;
4744;SDS011;2386;42.138;24.746;2023-02-24T04:35:38;185.43;;;68.73;;
4744;SDS011;2386;42.138;24.746;2023-02-24T04:38:04;193.13;;;71.73;;
4744;SDS011;2386;42.138;24.746;2023-02-24T04:40:30;203.73;;;68.40;;
4744;SDS011;2386;42.138;24.746;2023-02-24T04:42:56;198.70;;;70.10;;
4744;SDS011;2386;42.138;24.746;2023-02-24T04:45:22;202.57;;;72.77;;
4744;SDS011;2386;42.138;24.746;2023-02-24T04:47:53;186.30;;;67.67;;
4744;SDS011;2386;42.138;24.746;2023-02-24T04:50:22;209.43;;;73.50;;
4744;SDS011;2386;42.138;24.746;2023-02-24T04:52:54;200.90;;;70.27;;
4744;SDS011;2386;42.138;24.746;2023-02-24T04:55:40;206.23;;;70.70;;
4744;SDS011;2386;42.138;24.746;2023-02-24T04:58:09;201.20;;;70.17;;
4744;SDS011;2386;42.138;24.746;2023-02-24T05:00:35;203.63;;;73.17;;
4744;SDS011;2386;42.138;24.746;2023-02-24T05:03:04;218.97;;;76.10;;
4744;SDS011;2386;42.138;24.746;2023-02-24T05:05:31;195.73;;;68.07;;
4744;SDS011;2386;42.138;24.746;2023-02-24T05:07:58;212.47;;;70.40;;
4744;SDS011;2386;42.138;24.746;2023-02-24T05:10:33;190.50;;;68.67;;
4744;SDS011;2386;42.138;24.746;2023-02-24T05:13:11;227.80;;;79.00;;
4744;SDS011;2386;42.138;24.746;2023-02-24T05:15:41;226.90;;;85.60;;
4744;SDS011;2386;42.138;24.746;2023-02-24T05:18:09;306.20;;;127.60;;
4744;SDS011;2386;42.138;24.746;2023-02-24T05:20:46;330.97;;;136.23;;
4744;SDS011;2386;42.138;24.746;2023-02-24T05:23:32;472.03;;;254.60;;
4744;SDS011;2386;42.138;24.746;2023-02-24T05:26:08;243.47;;;85.90;;
4744;SDS011;2386;42.138;24.746;2023-02-24T05:28:36;240.03;;;87.47;;
4744;SDS011;2386;42.138;24.746;2023-02-24T05:31:08;247.40;;;86.60;;
4744;SDS011;2386;42.138;24.746;2023-02-24T05:33:39;264.50;;;93.27;;
4744;SDS011;2386;42.138;24.746;2023-02-24T05:36:07;232.60;;;86.57;;
4744;SDS011;2386;42.138;24.746;2023-02-24T05:38:36;241.37;;;84.50;;
4744;SDS011;2386;42.138;24.746;2023-02-24T05:41:08;242.40;;;89.37;;
4744;SDS011;2386;42.138;24.746;2023-02-24T05:43:41;242.90;;;82.47;;
4744;SDS011;2386;42.138;24.746;2023-02-24T05:46:12;244.67;;;81.80;;
4744;SDS011;2386;42.138;24.746;2023-02-24T05:48:38;265.53;;;88.17;;
4744;SDS011;2386;42.138;24.746;2023-02-24T05:51:04;251.63;;;85.10;;
4744;SDS011;2386;42.138;24.746;2023-02-24T05:53:35;264.13;;;89.03;;
4744;SDS011;2386;42.138;24.746;2023-02-24T05:56:05;269.83;;;93.97;;
4744;SDS011;2386;42.138;24.746;2023-02-24T05:58:34;250.40;;;89.47;;
4744;SDS011;2386;42.138;24.746;2023-02-24T06:01:07;302.23;;;98.57;;
4744;SDS011;2386;42.138;24.746;2023-02-24T06:03:35;285.37;;;97.03;;
4744;SDS011;2386;42.138;24.746;2023-02-24T06:06:01;294.07;;;100.87;;
4744;SDS011;2386;42.138;24.746;2023-02-24T06:08:30;295.67;;;92.50;;
4744;SDS011;2386;42.138;24.746;2023-02-24T06:11:06;281.50;;;94.10;;
4744;SDS011;2386;42.138;24.746;2023-02-24T06:13:35;283.13;;;90.00;;
4744;SDS011;2386;42.138;24.746;2023-02-24T06:16:02;280.63;;;99.10;;
4744;SDS011;2386;42.138;24.746;2023-02-24T06:18:28;280.17;;;91.20;;
4744;SDS011;2386;42.138;24.746;2023-02-24T06:20:54;279.10;;;88.67;;
4744;SDS011;2386;42.138;24.746;2023-02-24T06:23:19;302.37;;;100.80;;
4744;SDS011;2386;42.138;24.746;2023-02-24T06:25:45;278.77;;;89.83;;
4744;SDS011;2386;42.138;24.746;2023-02-24T06:28:10;254.83;;;83.83;;
4744;SDS011;2386;42.138;24.746;2023-02-24T06:30:35;266.77;;;85.20;;
4744;SDS011;2386;42.138;24.746;2023-02-24T06:33:01;265.13;;;88.00;;
4744;SDS011;2386;42.138;24.746;2023-02-24T06:35:29;270.17;;;87.03;;
4744;SDS011;2386;42.138;24.746;2023-02-24T06:37:56;271.57;;;90.10;;
4744;SDS011;2386;42.138;24.746;2023-02-24T06:40:22;294.60;;;96.30;;
4744;SDS011;2386;42.138;24.746;2023-02-24T06:42:49;264.07;;;89.70;;
4744;SDS011;2386;42.138;24.746;2023-02-24T06:45:19;267.50;;;88.57;;
4744;SDS011;2386;42.138;24.746;2023-02-24T06:47:45;283.20;;;92.80;;
4744;SDS011;2386;42.138;24.746;2023-02-24T06:50:14;275.80;;;92.70;;
4744;SDS011;2386;42.138;24.746;2023-02-24T06:52:44;266.43;;;90.77;;
4744;SDS011;2386;42.138;24.746;2023-02-24T06:55:13;271.53;;;90.53;;
4744;SDS011;2386;42.138;24.746;2023-02-24T06:57:58;274.53;;;92.77;;
4744;SDS011;2386;42.138;24.746;2023-02-24T07:00:29;278.73;;;93.80;;
4744;SDS011;2386;42.138;24.746;2023-02-24T07:03:09;283.90;;;94.57;;
4744;SDS011;2386;42.138;24.746;2023-02-24T07:05:43;270.47;;;92.80;;
4744;SDS011;2386;42.138;24.746;2023-02-24T07:08:23;266.53;;;91.60;;
4744;SDS011;2386;42.138;24.746;2023-02-24T07:10:52;278.37;;;97.13;;
4744;SDS011;2386;42.138;24.746;2023-02-24T07:13:22;283.77;;;99.50;;
4744;SDS011;2386;42.138;24.746;2023-02-24T07:15:49;272.87;;;98.20;;
4744;SDS011;2386;42.138;24.746;2023-02-24T07:18:16;292.87;;;108.90;;
4744;SDS011;2386;42.138;24.746;2023-02-24T07:20:42;291.23;;;105.77;;
4744;SDS011;2386;42.138;24.746;2023-02-24T07:23:10;312.57;;;117.70;;
4744;SDS011;2386;42.138;24.746;2023-02-24T07:25:36;278.17;;;100.07;;
4744;SDS011;2386;42.138;24.746;2023-02-24T07:28:04;274.67;;;99.53;;
4744;SDS011;2386;42.138;24.746;2023-02-24T07:30:31;291.83;;;105.37;;
4744;SDS011;2386;42.138;24.746;2023-02-24T07:32:58;276.70;;;100.67;;
4744;SDS011;2386;42.138;24.746;2023-02-24T07:35:23;295.93;;;101.73;;
4744;SDS011;2386;42.138;24.746;2023-02-24T07:37:49;317.07;;;106.13;;
4744;SDS011;2386;42.138;24.746;2023-02-24T07:40:16;275.90;;;99.10;;
4744;SDS011;2386;42.138;24.746;2023-02-24T07:42:42;307.50;;;105.27;;
4744;SDS011;2386;42.138;24.746;2023-02-24T07:45:11;307.13;;;100.87;;
4744;SDS011;2386;42.138;24.746;2023-02-24T07:47:37;293.67;;;99.33;;
4744;SDS011;2386;42.138;24.746;2023-02-24T07:50:05;340.73;;;107.40;;
4744;SDS011;2386;42.138;24.746;2023-02-24T07:52:38;292.00;;;98.20;;
4744;SDS011;2386;42.138;24.746;2023-02-24T07:55:06;314.77;;;103.33;;
4744;SDS011;2386;42.138;24.746;2023-02-24T07:57:35;309.43;;;92.90;;
4744;SDS011;2386;42.138;24.746;2023-02-24T08:00:05;307.73;;;101.17;;
4744;SDS011;2386;42.138;24.746;2023-02-24T08:02:47;328.90;;;100.20;;
4744;SDS011;2386;42.138;24.746;2023-02-24T08:05:17;297.73;;;100.57;;
4744;SDS011;2386;42.138;24.746;2023-02-24T08:07:45;302.70;;;96.90;;
4744;SDS011;2386;42.138;24.746;2023-02-24T08:10:17;310.27;;;100.40;;
4744;SDS011;2386;42.138;24.746;2023-02-24T08:12:51;313.90;;;99.57;;
4744;SDS011;2386;42.138;24.746;2023-02-24T08:15:24;296.60;;;96.60;;
4744;SDS011;2386;42.138;24.746;2023-02-24T08:17:58;307.27;;;98.67;;
4744;SDS011;2386;42.138;24.746;2023-02-24T08:20:25;298.80;;;90.73;;
4744;SDS011;2386;42.138;24.746;2023-02-24T08:22:54;307.67;;;98.10;;
4744;SDS011;2386;42.138;24.746;2023-02-24T08:25:24;338.90;;;105.53;;
4744;SDS011;2386;42.138;24.746;2023-02-24T08:27:59;310.07;;;99.90;;
4744;SDS011;2386;42.138;24.746;2023-02-24T08:30:29;302.20;;;98.00;;
4744;SDS011;2386;42.138;24.746;2023-02-24T08:33:02;294.47;;;98.30;;
4744;SDS011;2386;42.138;24.746;2023-02-24T08:35:30;313.13;;;99.13;;
4744;SDS011;2386;42.138;24.746;2023-02-24T08:38:17;294.20;;;96.67;;
4744;SDS011;2386;42.138;24.746;2023-02-24T08:40:48;305.23;;;98.87;;
4744;SDS011;2386;42.138;24.746;2023-02-24T08:43:20;295.07;;;96.57;;
4744;SDS011;2386;42.138;24.746;2023-02-24T08:48:52;344.83;;;106.07;;
4744;SDS011;2386;42.138;24.746;2023-02-24T08:51:28;377.80;;;127.97;;
4744;SDS011;2386;42.138;24.746;2023-02-24T08:54:00;428.97;;;147.17;;
4744;SDS011;2386;42.138;24.746;2023-02-24T08:56:35;383.47;;;128.80;;
4744;SDS011;2386;42.138;24.746;2023-02-24T08:59:07;357.30;;;129.63;;
4744;SDS011;2386;42.138;24.746;2023-02-24T09:01:40;355.20;;;129.33;;
4744;SDS011;2386;42.138;24.746;2023-02-24T09:04:18;353.40;;;127.80;;
4744;SDS011;2386;42.138;24.746;2023-02-24T09:06:48;375.80;;;139.03;;
4744;SDS011;2386;42.138;24.746;2023-02-24T09:09:22;385.20;;;144.23;;
4744;SDS011;2386;42.138;24.746;2023-02-24T09:14:20;360.63;;;138.93;;
4744;SDS011;2386;42.138;24.746;2023-02-24T09:16:47;403.83;;;148.17;;
4744;SDS011;2386;42.138;24.746;2023-02-24T09:19:39;392.83;;;145.10;;
4744;SDS011;2386;42.138;24.746;2023-02-24T09:22:12;382.97;;;142.20;;
4744;SDS011;2386;42.138;24.746;2023-02-24T09:25:07;381.70;;;147.43;;
4744;SDS011;2386;42.138;24.746;2023-02-24T09:30:32;365.57;;;137.90;;
4744;SDS011;2386;42.138;24.746;2023-02-24T09:35:42;327.27;;;133.37;;
4744;SDS011;2386;42.138;24.746;2023-02-24T09:38:10;345.60;;;136.33;;
4744;SDS011;2386;42.138;24.746;2023-02-24T09:40:40;381.10;;;149.80;;
4744;SDS011;2386;42.138;24.746;2023-02-24T09:43:20;344.57;;;137.43;;
4744;SDS011;2386;42.138;24.746;2023-02-24T09:46:09;326.83;;;127.83;;
4744;SDS011;2386;42.138;24.746;2023-02-24T09:48:53;372.50;;;141.13;;
4744;SDS011;2386;42.138;24.746;2023-02-24T09:51:29;348.47;;;130.23;;
4744;SDS011;2386;42.138;24.746;2023-02-24T09:54:09;328.07;;;138.83;;
4744;SDS011;2386;42.138;24.746;2023-02-24T09:56:53;302.00;;;128.23;;
4744;SDS011;2386;42.138;24.746;2023-02-24T10:07:52;297.63;;;119.50;;
4744;SDS011;2386;42.138;24.746;2023-02-24T10:10:27;277.50;;;120.30;;
4744;SDS011;2386;42.138;24.746;2023-02-24T10:13:17;265.37;;;111.60;;
4744;SDS011;2386;42.138;24.746;2023-02-24T10:15:54;277.90;;;111.17;;
4744;SDS011;2386;42.138;24.746;2023-02-24T10:26:55;285.83;;;112.97;;
4744;SDS011;2386;42.138;24.746;2023-02-24T10:29:30;245.57;;;101.43;;
4744;SDS011;2386;42.138;24.746;2023-02-24T10:34:58;263.70;;;108.77;;
4744;SDS011;2386;42.138;24.746;2023-02-24T10:37:26;249.80;;;101.47;;
4744;SDS011;2386;42.138;24.746;2023-02-24T10:39:58;291.10;;;112.87;;
4744;SDS011;2386;42.138;24.746;2023-02-24T10:42:33;270.17;;;112.87;;
4744;SDS011;2386;42.138;24.746;2023-02-24T10:45:15;261.97;;;106.20;;
4744;SDS011;2386;42.138;24.746;2023-02-24T10:47:54;260.97;;;107.93;;
4744;SDS011;2386;42.138;24.746;2023-02-24T10:50:24;271.43;;;109.10;;
4744;SDS011;2386;42.138;24.746;2023-02-24T10:52:53;277.87;;;115.33;;
4744;SDS011;2386;42.138;24.746;2023-02-24T11:01:24;261.23;;;112.17;;
4744;SDS011;2386;42.138;24.746;2023-02-24T11:04:14;255.33;;;107.23;;
4744;SDS011;2386;42.138;24.746;2023-02-24T11:07:13;252.27;;;109.10;;
4744;SDS011;2386;42.138;24.746;2023-02-24T11:09:49;283.93;;;120.00;;
4744;SDS011;2386;42.138;24.746;2023-02-24T11:12:47;264.73;;;115.83;;
4744;SDS011;2386;42.138;24.746;2023-02-24T11:18:20;280.50;;;120.57;;
4744;SDS011;2386;42.138;24.746;2023-02-24T11:23:29;282.13;;;119.57;;
4744;SDS011;2386;42.138;24.746;2023-02-24T11:26:06;265.40;;;110.17;;
4744;SDS011;2386;42.138;24.746;2023-02-24T11:31:27;256.70;;;110.03;;
4744;SDS011;2386;42.138;24.746;2023-02-24T11:39:58;529.77;;;262.77;;
4744;SDS011;2386;42.138;24.746;2023-02-24T11:47:44;254.17;;;112.90;;
4744;SDS011;2386;42.138;24.746;2023-02-24T11:52:40;274.63;;;117.10;;
4744;SDS011;2386;42.138;24.746;2023-02-24T11:55:54;266.33;;;111.07;;
4744;SDS011;2386;42.138;24.746;2023-02-24T11:58:15;265.30;;;112.63;;
4744;SDS011;2386;42.138;24.746;2023-02-24T12:00:56;232.20;;;106.70;;
4744;SDS011;2386;42.138;24.746;2023-02-24T12:04:09;233.33;;;102.73;;
4744;SDS011;2386;42.138;24.746;2023-02-24T12:06:31;244.20;;;108.17;;
4744;SDS011;2386;42.138;24.746;2023-02-24T12:09:05;254.07;;;108.13;;
4744;SDS011;2386;42.138;24.746;2023-02-24T12:11:56;264.00;;;112.80;;
4744;SDS011;2386;42.138;24.746;2023-02-24T12:14:34;273.43;;;117.10;;
4744;SDS011;2386;42.138;24.746;2023-02-24T12:17:10;274.37;;;119.83;;
4744;SDS011;2386;42.138;24.746;2023-02-24T12:22:53;398.37;;;222.10;;
4744;SDS011;2386;42.138;24.746;2023-02-24T12:25:24;286.60;;;124.47;;
4744;SDS011;2386;42.138;24.746;2023-02-24T12:58:11;276.23;;;114.60;;
4744;SDS011;2386;42.138;24.746;2023-02-24T13:00:55;305.07;;;127.17;;
4744;SDS011;2386;42.138;24.746;2023-02-24T13:03:43;294.90;;;127.10;;
4744;SDS011;2386;42.138;24.746;2023-02-24T13:14:39;294.10;;;151.70;;
4744;SDS011;2386;42.138;24.746;2023-02-24T13:19:36;298.13;;;132.23;;
4744;SDS011;2386;42.138;24.746;2023-02-24T13:22:07;295.47;;;132.83;;
4744;SDS011;2386;42.138;24.746;2023-02-24T13:24:33;288.97;;;129.27;;
4744;SDS011;2386;42.138;24.746;2023-02-24T13:27:42;286.13;;;127.17;;
4744;SDS011;2386;42.138;24.746;2023-02-24T13:29:52;311.63;;;128.20;;
4744;SDS011;2386;42.138;24.746;2023-02-24T13:32:23;282.67;;;124.93;;
4744;SDS011;2386;42.138;24.746;2023-02-24T13:34:53;295.40;;;126.60;;
4744;SDS011;2386;42.138;24.746;2023-02-24T13:43:03;298.27;;;129.10;;
4744;SDS011;2386;42.138;24.746;2023-02-24T13:45:56;304.60;;;125.57;;
4744;SDS011;2386;42.138;24.746;2023-02-24T13:49:05;269.57;;;112.37;;
4744;SDS011;2386;42.138;24.746;2023-02-24T13:52:17;380.60;;;187.70;;
4744;SDS011;2386;42.138;24.746;2023-02-24T14:03:11;271.17;;;114.83;;
4744;SDS011;2386;42.138;24.746;2023-02-24T14:05:44;275.60;;;119.30;;
4744;SDS011;2386;42.138;24.746;2023-02-24T14:08:55;288.53;;;123.73;;
4744;SDS011;2386;42.138;24.746;2023-02-24T14:11:06;310.70;;;128.13;;
4744;SDS011;2386;42.138;24.746;2023-02-24T14:13:36;299.53;;;124.97;;
4744;SDS011;2386;42.138;24.746;2023-02-24T14:16:05;282.63;;;121.73;;
4744;SDS011;2386;42.138;24.746;2023-02-24T14:18:32;290.33;;;123.13;;
4744;SDS011;2386;42.138;24.746;2023-02-24T14:20:58;284.33;;;121.93;;
4744;SDS011;2386;42.138;24.746;2023-02-24T14:23:25;281.00;;;123.43;;
4744;SDS011;2386;42.138;24.746;2023-02-24T14:25:57;289.20;;;124.93;;
4744;SDS011;2386;42.138;24.746;2023-02-24T14:28:32;278.93;;;120.03;;
4744;SDS011;2386;42.138;24.746;2023-02-24T14:31:07;267.37;;;119.00;;
4744;SDS011;2386;42.138;24.746;2023-02-24T14:33:36;265.30;;;118.97;;
4744;SDS011;2386;42.138;24.746;2023-02-24T14:36:04;292.00;;;122.37;;
4744;SDS011;2386;42.138;24.746;2023-02-24T14:38:40;301.73;;;126.97;;
4744;SDS011;2386;42.138;24.746;2023-02-24T14:41:41;306.93;;;129.27;;
4744;SDS011;2386;42.138;24.746;2023-02-24T14:46:45;307.17;;;126.73;;
4744;SDS011;2386;42.138;24.746;2023-02-24T14:49:15;289.00;;;124.80;;
4744;SDS011;2386;42.138;24.746;2023-02-24T14:51:45;313.67;;;130.30;;
4744;SDS011;2386;42.138;24.746;2023-02-24T14:54:16;292.97;;;121.20;;
4744;SDS011;2386;42.138;24.746;2023-02-24T14:56:48;293.73;;;122.33;;
4744;SDS011;2386;42.138;24.746;2023-02-24T14:59:19;291.67;;;121.23;;
4744;SDS011;2386;42.138;24.746;2023-02-24T15:01:55;297.90;;;123.60;;
4744;SDS011;2386;42.138;24.746;2023-02-24T15:04:29;304.27;;;126.53;;
4744;SDS011;2386;42.138;24.746;2023-02-24T15:06:56;308.50;;;126.27;;
4744;SDS011;2386;42.138;24.746;2023-02-24T15:09:22;293.40;;;119.50;;
4744;SDS011;2386;42.138;24.746;2023-02-24T15:11:58;297.37;;;120.43;;
4744;SDS011;2386;42.138;24.746;2023-02-24T15:14:36;313.80;;;127.77;;
4744;SDS011;2386;42.138;24.746;2023-02-24T15:17:14;304.47;;;118.27;;
4744;SDS011;2386;42.138;24.746;2023-02-24T15:19:42;285.83;;;115.83;;
4744;SDS011;2386;42.138;24.746;2023-02-24T15:22:17;288.30;;;118.37;;
4744;SDS011;2386;42.138;24.746;2023-02-24T15:24:44;283.80;;;112.40;;
4744;SDS011;2386;42.138;24.746;2023-02-24T15:29:39;304.47;;;118.83;;
4744;SDS011;2386;42.138;24.746;2023-02-24T15:32:12;305.67;;;121.40;;
4744;SDS011;2386;42.138;24.746;2023-02-24T15:34:42;300.57;;;117.67;;
4744;SDS011;2386;42.138;24.746;2023-02-24T15:37:14;286.37;;;113.63;;
4744;SDS011;2386;42.138;24.746;2023-02-24T15:39:53;287.23;;;113.40;;
4744;SDS011;2386;42.138;24.746;2023-02-24T15:42:27;282.30;;;110.57;;
4744;SDS011;2386;42.138;24.746;2023-02-24T15:44:58;300.50;;;115.67;;
4744;SDS011;2386;42.138;24.746;2023-02-24T15:47:50;289.20;;;114.87;;
4744;SDS011;2386;42.138;24.746;2023-02-24T15:50:17;307.73;;;120.93;;
4744;SDS011;2386;42.138;24.746;2023-02-24T15:52:43;311.00;;;122.93;;
4744;SDS011;2386;42.138;24.746;2023-02-24T15:55:15;316.97;;;123.20;;
4744;SDS011;2386;42.138;24.746;2023-02-24T15:57:43;276.10;;;117.10;;
4744;SDS011;2386;42.138;24.746;2023-02-24T16:00:11;284.27;;;116.60;;
4744;SDS011;2386;42.138;24.746;2023-02-24T16:02:40;297.77;;;118.23;;
4744;SDS011;2386;42.138;24.746;2023-02-24T16:05:06;280.90;;;113.27;;
4744;SDS011;2386;42.138;24.746;2023-02-24T16:07:34;288.70;;;115.30;;
4744;SDS011;2386;42.138;24.746;2023-02-24T16:10:02;294.30;;;118.13;;
4744;SDS011;2386;42.138;24.746;2023-02-24T16:12:29;306.70;;;120.43;;
4744;SDS011;2386;42.138;24.746;2023-02-24T16:15:00;289.00;;;107.03;;
4744;SDS011;2386;42.138;24.746;2023-02-24T16:17:39;282.83;;;110.07;;
4744;SDS011;2386;42.138;24.746;2023-02-24T16:20:10;279.10;;;109.27;;
4744;SDS011;2386;42.138;24.746;2023-02-24T16:22:37;289.13;;;116.33;;
4744;SDS011;2386;42.138;24.746;2023-02-24T16:25:03;281.10;;;108.87;;
4744;SDS011;2386;42.138;24.746;2023-02-24T16:27:29;288.77;;;109.87;;
4744;SDS011;2386;42.138;24.746;2023-02-24T16:29:57;271.40;;;106.03;;
4744;SDS011;2386;42.138;24.746;2023-02-24T16:32:23;357.90;;;145.87;;
4744;SDS011;2386;42.138;24.746;2023-02-24T16:34:51;291.50;;;112.67;;
4744;SDS011;2386;42.138;24.746;2023-02-24T16:37:18;289.43;;;110.10;;
4744;SDS011;2386;42.138;24.746;2023-02-24T16:39:45;290.40;;;112.00;;
4744;SDS011;2386;42.138;24.746;2023-02-24T16:42:11;310.97;;;118.17;;
4744;SDS011;2386;42.138;24.746;2023-02-24T16:44:36;296.13;;;113.30;;
4744;SDS011;2386;42.138;24.746;2023-02-24T16:47:02;299.80;;;116.93;;
4744;SDS011;2386;42.138;24.746;2023-02-24T16:49:30;312.87;;;120.37;;
4744;SDS011;2386;42.138;24.746;2023-02-24T16:51:56;296.67;;;115.43;;
4744;SDS011;2386;42.138;24.746;2023-02-24T16:54:21;314.50;;;118.27;;
4744;SDS011;2386;42.138;24.746;2023-02-24T16:56:47;330.70;;;123.43;;
4744;SDS011;2386;42.138;24.746;2023-02-24T16:59:15;302.03;;;114.13;;
4744;SDS011;2386;42.138;24.746;2023-02-24T17:01:41;324.37;;;123.63;;
4744;SDS011;2386;42.138;24.746;2023-02-24T17:04:06;337.27;;;129.13;;
4744;SDS011;2386;42.138;24.746;2023-02-24T17:06:34;307.50;;;116.83;;
4744;SDS011;2386;42.138;24.746;2023-02-24T17:08:59;308.20;;;122.77;;
4744;SDS011;2386;42.138;24.746;2023-02-24T17:11:25;311.93;;;122.97;;
4744;SDS011;2386;42.138;24.746;2023-02-24T17:13:52;309.30;;;116.27;;
4744;SDS011;2386;42.138;24.746;2023-02-24T17:16:17;317.57;;;121.97;;
4744;SDS011;2386;42.138;24.746;2023-02-24T17:18:43;298.23;;;115.53;;
4744;SDS011;2386;42.138;24.746;2023-02-24T17:21:09;286.53;;;113.17;;
4744;SDS011;2386;42.138;24.746;2023-02-24T17:23:37;298.60;;;119.43;;